Time;durP1;ratioP1;P1;durP2;ratioP2;P2;SDS_P1;SDS_P2;PMS_P1;PMS_P2;Temp;Humidity;BMP_temperature;BMP_pressure;BME280_temperature;BME280_humidity;BME280_pressure;Samples;Min_cycle;Max_cycle;Signal;HPM_P1;HPM_P2
2022/09/22 00:02:19;;;;;;;21.08;15.95;;;;;;;-141.48;100.00;69781.59;5210313;28;20128;-79
2022/09/22 00:04:49;;;;;;;16.45;15.32;;;;;;;-141.48;100.00;69781.59;5226786;28;20056;-79
2022/09/22 00:07:19;;;;;;;16.65;15.43;;;;;;;-141.48;100.00;69781.59;5228212;28;20017;-78
2022/09/22 00:09:50;;;;;;;22.83;16.63;;;;;;;-141.48;100.00;69781.59;5227838;28;20033;-78
2022/09/22 00:12:21;;;;;;;18.85;17.13;;;;;;;-141.48;100.00;69781.59;5226883;28;20106;-79
2022/09/22 00:14:52;;;;;;;19.23;17.25;;;;;;;-141.48;100.00;69781.59;5227561;28;20024;-79
2022/09/22 00:17:23;;;;;;;19.98;18.48;;;;;;;-141.48;100.00;69781.59;5209537;28;20024;-79
2022/09/22 00:19:53;;;;;;;16.13;14.90;;;;;;;-141.48;100.00;69781.59;5227901;28;20074;-79
2022/09/22 00:22:24;;;;;;;17.33;16.15;;;;;;;-141.48;100.00;69781.59;5210722;28;20052;-78
2022/09/22 00:24:55;;;;;;;17.08;15.90;;;;;;;-141.48;100.00;69781.59;5209977;28;20044;-79
2022/09/22 00:27:26;;;;;;;18.15;16.73;;;;;;;-141.48;100.00;69781.59;5210132;28;20020;-78
2022/09/22 00:29:56;;;;;;;17.38;15.82;;;;;;;-141.48;100.00;69781.59;5227370;28;20029;-79
2022/09/22 00:32:27;;;;;;;18.40;16.83;;;;;;;-141.48;100.00;69781.59;5226864;28;20408;-79
2022/09/22 00:34:57;;;;;;;18.85;17.42;;;;;;;-141.48;100.00;69781.59;5227485;28;20021;-80
2022/09/22 00:37:28;;;;;;;16.27;14.60;;;;;;;-141.48;100.00;69781.59;5213032;28;20499;-79
2022/09/22 00:39:59;;;;;;;19.38;17.15;;;;;;;-141.48;100.00;69781.59;5230953;28;20028;-79
2022/09/22 00:42:29;;;;;;;19.88;18.38;;;;;;;-141.48;100.00;69781.59;5213964;28;20568;-79
2022/09/22 00:45:00;;;;;;;20.17;18.58;;;;;;;-141.48;100.00;69781.59;5230614;28;20104;-79
2022/09/22 00:47:40;;;;;;;16.92;15.63;;;;;;;-141.48;100.00;69781.59;5231220;28;20080;-79
2022/09/22 00:50:18;;;;;;;16.55;15.45;;;;;;;-141.48;100.00;69781.59;5231077;28;20029;-79
2022/09/22 00:52:58;;;;;;;21.00;19.30;;;;;;;-141.48;100.00;69781.59;5230977;28;20123;-79
2022/09/22 00:55:30;;;;;;;20.95;19.33;;;;;;;-141.48;100.00;69781.59;5230552;28;20082;-79
2022/09/22 00:58:05;;;;;;;19.42;17.90;;;;;;;-141.48;100.00;69781.59;5230543;28;20493;-79
2022/09/22 01:00:35;;;;;;;17.95;16.75;;;;;;;-141.48;100.00;69781.59;5212525;28;20155;-79
2022/09/22 01:03:10;;;;;;;21.27;19.38;;;;;;;-141.48;100.00;69781.59;5230990;28;20047;-78
2022/09/22 01:05:44;;;;;;;17.13;15.85;;;;;;;-141.48;100.00;69781.59;5229759;28;20021;-79
2022/09/22 01:08:16;;;;;;;21.05;18.63;;;;;;;-141.48;100.00;69781.59;5231779;28;20051;-79
2022/09/22 01:10:47;;;;;;;19.10;17.48;;;;;;;-141.48;100.00;69781.59;5215786;28;20056;-79
2022/09/22 01:13:29;;;;;;;21.38;19.48;;;;;;;-141.48;100.00;69781.59;5234081;28;20033;-79
2022/09/22 01:16:28;;;;;;;21.58;19.52;;;;;;;-141.48;100.00;69781.59;5234624;28;20426;-79
2022/09/22 01:19:05;;;;;;;20.00;18.52;;;;;;;-141.48;100.00;69781.59;5213341;28;20031;-78
2022/09/22 01:21:41;;;;;;;19.13;17.83;;;;;;;-141.48;100.00;69781.59;5230188;28;20411;-78
2022/09/22 01:24:46;;;;;;;21.58;19.67;;;;;;;-141.48;100.00;69781.59;5229311;28;20375;-79
2022/09/22 01:27:45;;;;;;;19.90;18.42;;;;;;;-141.48;100.00;69781.59;5230028;28;20391;-79
2022/09/22 01:30:16;;;;;;;19.67;18.15;;;;;;;-141.48;100.00;69781.59;5229875;28;20039;-79
2022/09/22 01:33:00;;;;;;;19.27;17.63;;;;;;;-141.48;100.00;69781.59;5230213;28;20025;-78
2022/09/22 01:35:55;;;;;;;15.95;14.80;;;;;;;-141.48;100.00;69781.59;5228707;28;20029;-78
2022/09/22 01:38:35;;;;;;;20.35;18.63;;;;;;;-141.48;100.00;69781.59;5211593;28;20036;-78
2022/09/22 01:41:36;;;;;;;20.50;18.65;;;;;;;-141.48;100.00;69781.59;5229692;28;20108;-78
2022/09/22 01:44:32;;;;;;;20.27;18.67;;;;;;;-141.48;100.00;69781.59;5228533;28;20033;-79
2022/09/22 01:47:23;;;;;;;19.25;17.52;;;;;;;-141.48;100.00;69781.59;5200984;28;20044;-78
2022/09/22 01:49:59;;;;;;;19.73;17.88;;;;;;;-141.48;100.00;69781.59;5229316;28;20498;-79
2022/09/22 01:52:34;;;;;;;19.10;17.90;;;;;;;-141.48;100.00;69781.59;5228136;28;20103;-79
2022/09/22 01:55:33;;;;;;;19.92;18.38;;;;;;;-141.48;100.00;69781.59;5227238;28;20436;-79
2022/09/22 01:58:19;;;;;;;19.27;17.65;;;;;;;-141.48;100.00;69781.59;5208437;28;20491;-78
2022/09/22 02:04:18;;;;;;;19.70;18.25;;;;;;;-141.48;100.00;69781.59;5231717;22;20052;-66
2022/09/22 02:06:58;;;;;;;19.65;17.98;;;;;;;-141.48;100.00;69781.59;5207222;28;20033;-66
2022/09/22 02:09:31;;;;;;;18.40;17.13;;;;;;;-141.48;100.00;69781.59;5195533;28;20025;-66
2022/09/22 02:12:03;;;;;;;19.35;17.88;;;;;;;-141.48;100.00;69781.59;5186535;28;20511;-65
2022/09/22 02:14:34;;;;;;;17.48;15.75;;;;;;;-141.48;100.00;69781.59;5186231;28;20027;-65
2022/09/22 02:17:04;;;;;;;19.52;17.80;;;;;;;-141.48;100.00;69781.59;5204324;28;20452;-65
2022/09/22 02:19:40;;;;;;;20.33;18.75;;;;;;;-141.48;100.00;69781.59;5186133;28;20029;-65
2022/09/22 02:22:11;;;;;;;19.45;17.70;;;;;;;-141.48;100.00;69781.59;5186360;28;20025;-65
2022/09/22 02:24:44;;;;;;;19.38;17.73;;;;;;;-141.48;100.00;69781.59;5186069;28;20543;-66
2022/09/22 02:27:35;;;;;;;18.58;17.27;;;;;;;-141.48;100.00;69781.59;5186204;28;20029;-65
2022/09/22 02:30:08;;;;;;;19.10;17.52;;;;;;;-141.48;100.00;69781.59;5186171;28;20132;-66
2022/09/22 02:32:45;;;;;;;21.35;17.35;;;;;;;-141.48;100.00;69781.59;5186194;28;20090;-66
2022/09/22 02:35:16;;;;;;;17.23;15.77;;;;;;;-141.48;100.00;69781.59;5185664;28;20032;-66
2022/09/22 02:38:02;;;;;;;18.42;16.88;;;;;;;-141.48;100.00;69781.59;5186055;28;20032;-66
2022/09/22 02:40:45;;;;;;;18.15;16.85;;;;;;;-141.48;100.00;69781.59;5185903;28;20111;-66
2022/09/22 02:43:34;;;;;;;20.45;18.35;;;;;;;-141.48;100.00;69781.59;5186202;28;20114;-65
2022/09/22 02:46:10;;;;;;;17.85;16.60;;;;;;;-141.48;100.00;69781.59;5186005;28;20037;-66
2022/09/22 02:48:45;;;;;;;18.55;17.33;;;;;;;-141.48;100.00;69781.59;5186154;28;20449;-66
2022/09/22 02:51:17;;;;;;;18.55;17.30;;;;;;;-141.48;100.00;69781.59;5204088;28;20059;-66
2022/09/22 02:53:47;;;;;;;18.88;17.65;;;;;;;-141.48;100.00;69781.59;5203448;28;20026;-66
2022/09/22 02:56:18;;;;;;;18.48;17.13;;;;;;;-141.48;100.00;69781.59;5185791;28;20032;-66
2022/09/22 02:58:48;;;;;;;17.48;16.17;;;;;;;-141.48;100.00;69781.59;5248691;22;20132;-80
2022/09/22 03:01:19;;;;;;;19.08;17.63;;;;;;;-141.48;100.00;69781.59;5229296;28;20021;-78
2022/09/22 03:03:49;;;;;;;23.20;20.95;;;;;;;-141.48;100.00;69781.59;5232528;28;20058;-78
2022/09/22 03:06:19;;;;;;;18.45;17.00;;;;;;;-141.48;100.00;69781.59;5234411;28;20170;-78
2022/09/22 03:08:50;;;;;;;17.50;16.30;;;;;;;-141.48;100.00;69781.59;5236324;28;20033;-79
2022/09/22 03:11:20;;;;;;;22.27;20.05;;;;;;;-141.48;100.00;69781.59;5236746;28;20021;-78
2022/09/22 03:13:51;;;;;;;19.35;17.77;;;;;;;-141.48;100.00;69781.59;5235014;28;20397;-79
2022/09/22 03:16:21;;;;;;;19.83;18.23;;;;;;;-141.48;100.00;69781.59;5234832;28;20022;-78
2022/09/22 03:18:51;;;;;;;22.10;20.38;;;;;;;-141.48;100.00;69781.59;5236334;28;20027;-80
2022/09/22 03:21:22;;;;;;;19.13;17.83;;;;;;;-141.48;100.00;69781.59;5236039;28;20467;-79
2022/09/22 03:23:52;;;;;;;21.40;19.30;;;;;;;-141.48;100.00;69781.59;5234219;28;20084;-81
2022/09/22 03:26:23;;;;;;;19.75;18.35;;;;;;;-141.48;100.00;69781.59;5234801;28;20028;-79
2022/09/22 03:28:53;;;;;;;18.83;17.23;;;;;;;-141.48;100.00;69781.59;5234124;28;20028;-78
2022/09/22 03:31:24;;;;;;;19.38;17.88;;;;;;;-141.48;100.00;69781.59;5234756;28;20056;-80
2022/09/22 03:33:54;;;;;;;19.23;17.73;;;;;;;-141.48;100.00;69781.59;5233048;28;20371;-79
2022/09/22 03:36:24;;;;;;;19.15;17.88;;;;;;;-141.48;100.00;69781.59;5235553;28;20086;-79
2022/09/22 03:38:55;;;;;;;17.60;16.40;;;;;;;-141.48;100.00;69781.59;5234731;28;20037;-79
2022/09/22 03:41:25;;;;;;;21.40;19.85;;;;;;;-141.48;100.00;69781.59;5234481;28;20486;-78
2022/09/22 03:43:56;;;;;;;18.40;17.10;;;;;;;-141.48;100.00;69781.59;5238892;28;20120;-80
2022/09/22 03:46:26;;;;;;;19.40;18.13;;;;;;;-141.48;100.00;69781.59;5244226;28;20028;-79
2022/09/22 03:48:57;;;;;;;20.13;18.38;;;;;;;-141.48;100.00;69781.59;5244322;28;20032;-78
2022/09/22 03:51:27;;;;;;;20.50;18.55;;;;;;;-141.48;100.00;69781.59;5244554;28;20419;-78
2022/09/22 03:53:58;;;;;;;19.10;17.67;;;;;;;-141.48;100.00;69781.59;5242955;28;20100;-79
2022/09/22 03:56:28;;;;;;;20.23;18.65;;;;;;;-141.48;100.00;69781.59;5244329;28;20024;-79
2022/09/22 03:58:59;;;;;;;19.23;17.92;;;;;;;-141.48;100.00;69781.59;5242742;28;20084;-79
2022/09/22 04:01:29;;;;;;;19.58;17.83;;;;;;;-141.48;100.00;69781.59;5243695;28;20029;-79
2022/09/22 04:04:00;;;;;;;19.60;18.13;;;;;;;-141.48;100.00;69781.59;5243659;28;20085;-79
2022/09/22 04:06:30;;;;;;;20.02;18.50;;;;;;;-141.48;100.00;69781.59;5244115;28;20398;-80
2022/09/22 04:09:01;;;;;;;20.85;19.35;;;;;;;-141.48;100.00;69781.59;5243617;28;20214;-79
2022/09/22 04:11:31;;;;;;;19.70;18.17;;;;;;;-141.48;100.00;69781.59;5243518;28;20118;-80
2022/09/22 04:14:03;;;;;;;20.70;19.30;;;;;;;-141.48;100.00;69781.59;5242940;28;20028;-79
2022/09/22 04:16:34;;;;;;;22.95;21.08;;;;;;;-141.48;100.00;69781.59;5242308;28;20017;-78
2022/09/22 04:19:04;;;;;;;21.67;19.88;;;;;;;-141.48;100.00;69781.59;5238567;28;20033;-79
2022/09/22 04:21:34;;;;;;;19.50;18.08;;;;;;;-141.48;100.00;69781.59;5236803;28;20081;-79
2022/09/22 04:24:07;;;;;;;19.55;18.08;;;;;;;-141.48;100.00;69781.59;5236073;28;20036;-79
2022/09/22 04:26:38;;;;;;;19.23;18.00;;;;;;;-141.48;100.00;69781.59;5236835;28;20028;-79
2022/09/22 04:29:08;;;;;;;22.40;20.30;;;;;;;-141.48;100.00;69781.59;5235730;28;20204;-79
2022/09/22 04:31:39;;;;;;;21.13;18.95;;;;;;;-141.48;100.00;69781.59;5233422;28;20024;-79
2022/09/22 04:34:09;;;;;;;22.15;20.00;;;;;;;-141.48;100.00;69781.59;5234594;28;20421;-79
2022/09/22 04:36:39;;;;;;;18.33;17.00;;;;;;;-141.48;100.00;69781.59;5235080;28;20391;-79
2022/09/22 04:39:10;;;;;;;22.63;20.50;;;;;;;-141.48;100.00;69781.59;5235415;28;20028;-79
2022/09/22 04:41:40;;;;;;;19.00;17.50;;;;;;;-141.48;100.00;69781.59;5235256;28;20047;-80
2022/09/22 04:44:11;;;;;;;21.73;19.88;;;;;;;-141.48;100.00;69781.59;5234080;28;20029;-81
2022/09/22 04:46:44;;;;;;;18.95;17.30;;;;;;;-141.48;100.00;69781.59;5235110;28;20032;-82
2022/09/22 04:49:16;;;;;;;19.02;17.60;;;;;;;-141.48;100.00;69781.59;5234976;28;20474;-80
2022/09/22 04:51:46;;;;;;;20.35;18.85;;;;;;;-141.48;100.00;69781.59;5234660;28;20029;-80
2022/09/22 04:54:16;;;;;;;20.13;18.48;;;;;;;-141.48;100.00;69781.59;5234337;28;20024;-80
2022/09/22 04:56:47;;;;;;;20.52;19.10;;;;;;;-141.48;100.00;69781.59;5234437;28;20025;-80
2022/09/22 04:59:18;;;;;;;18.30;17.00;;;;;;;-141.48;100.00;69781.59;5233933;28;20088;-80
2022/09/22 05:01:48;;;;;;;20.45;19.02;;;;;;;-141.48;100.00;69781.59;5212533;28;20100;-80
2022/09/22 05:04:21;;;;;;;21.40;19.77;;;;;;;-141.48;100.00;69781.59;5223271;28;20051;-81
2022/09/22 05:06:52;;;;;;;21.10;19.52;;;;;;;-141.48;100.00;69781.59;5230275;28;20111;-80
2022/09/22 05:09:22;;;;;;;20.50;18.67;;;;;;;-141.48;100.00;69781.59;5231105;28;20051;-80
2022/09/22 05:11:59;;;;;;;21.45;19.75;;;;;;;-141.48;100.00;69781.59;5232670;28;20054;-80
2022/09/22 05:14:32;;;;;;;21.30;19.45;;;;;;;-141.48;100.00;69781.59;5231676;28;20108;-80
2022/09/22 05:17:03;;;;;;;22.23;20.15;;;;;;;-141.48;100.00;69781.59;5230675;28;20033;-80
2022/09/22 05:19:33;;;;;;;23.73;21.90;;;;;;;-141.48;100.00;69781.59;5231900;28;20402;-80
2022/09/22 05:22:04;;;;;;;21.10;19.20;;;;;;;-141.48;100.00;69781.59;5233694;28;20092;-81
2022/09/22 05:24:34;;;;;;;22.05;19.90;;;;;;;-141.48;100.00;69781.59;5238779;28;20029;-80
2022/09/22 05:27:04;;;;;;;20.17;18.42;;;;;;;-141.48;100.00;69781.59;5240989;28;20037;-80
2022/09/22 05:29:35;;;;;;;17.00;15.90;;;;;;;-141.48;100.00;69781.59;5239968;28;20021;-80
2022/09/22 05:32:05;;;;;;;21.70;19.67;;;;;;;-141.48;100.00;69781.59;5241228;28;20021;-80
2022/09/22 05:34:36;;;;;;;19.50;18.00;;;;;;;-141.48;100.00;69781.59;5238679;28;20013;-80
2022/09/22 05:37:06;;;;;;;19.73;18.13;;;;;;;-141.48;100.00;69781.59;5240839;28;20486;-80
2022/09/22 05:39:37;;;;;;;18.15;16.75;;;;;;;-141.48;100.00;69781.59;5238329;28;20021;-81
2022/09/22 05:42:07;;;;;;;21.08;19.17;;;;;;;-141.48;100.00;69781.59;5243424;28;20025;-80
2022/09/22 05:44:37;;;;;;;25.08;23.33;;;;;;;-141.48;100.00;69781.59;5242845;28;20566;-80
2022/09/22 05:47:08;;;;;;;21.67;19.83;;;;;;;-141.48;100.00;69781.59;5237750;28;20033;-79
2022/09/22 05:49:38;;;;;;;20.20;18.67;;;;;;;-141.48;100.00;69781.59;5237231;28;20028;-79
2022/09/22 05:52:08;;;;;;;24.02;22.13;;;;;;;-141.48;100.00;69781.59;5237101;28;20567;-79
2022/09/22 05:54:39;;;;;;;23.60;21.63;;;;;;;-141.48;100.00;69781.59;5236754;28;20017;-80
2022/09/22 05:57:09;;;;;;;21.95;20.15;;;;;;;-141.48;100.00;69781.59;5237570;28;20033;-81
2022/09/22 05:59:39;;;;;;;21.17;19.75;;;;;;;-141.48;100.00;69781.59;5236922;28;20363;-80
2022/09/22 06:02:10;;;;;;;20.77;19.30;;;;;;;-141.48;100.00;69781.59;5236498;28;20028;-80
2022/09/22 06:04:40;;;;;;;22.08;20.13;;;;;;;-141.48;100.00;69781.59;5235709;28;20067;-81
2022/09/22 06:07:11;;;;;;;20.00;18.77;;;;;;;-141.48;100.00;69781.59;5237348;28;20046;-81
2022/09/22 06:09:41;;;;;;;21.40;19.70;;;;;;;-141.48;100.00;69781.59;5237704;28;20025;-81
2022/09/22 06:12:12;;;;;;;21.48;19.42;;;;;;;-141.48;100.00;69781.59;5235562;28;20032;-81
2022/09/22 06:14:42;;;;;;;21.75;20.00;;;;;;;-141.48;100.00;69781.59;5234392;28;20498;-80
2022/09/22 06:17:13;;;;;;;21.38;19.73;;;;;;;-141.48;100.00;69781.59;5236637;28;20048;-81
2022/09/22 06:19:49;;;;;;;21.13;19.38;;;;;;;-141.48;100.00;69781.59;5235066;28;20029;-81
2022/09/22 06:22:19;;;;;;;22.00;20.40;;;;;;;-141.48;100.00;69781.59;5233605;28;20017;-80
2022/09/22 06:24:49;;;;;;;23.55;21.77;;;;;;;-141.48;100.00;69781.59;5235719;28;20140;-81
2022/09/22 06:27:20;;;;;;;21.48;19.52;;;;;;;-141.48;100.00;69781.59;5236187;28;20025;-79
2022/09/22 06:29:50;;;;;;;23.73;21.83;;;;;;;-141.48;100.00;69781.59;5235396;28;20033;-80
2022/09/22 06:32:21;;;;;;;22.02;20.02;;;;;;;-141.48;100.00;69781.59;5236013;28;20021;-80
2022/09/22 06:34:51;;;;;;;21.90;20.48;;;;;;;-141.48;100.00;69781.59;5235224;28;20028;-81
2022/09/22 06:37:22;;;;;;;22.23;20.45;;;;;;;-141.48;100.00;69781.59;5236266;28;20132;-81
2022/09/22 06:39:52;;;;;;;21.02;19.30;;;;;;;-141.48;100.00;69781.59;5234842;28;20114;-81
2022/09/22 06:42:22;;;;;;;21.58;19.80;;;;;;;-141.48;100.00;69781.59;5234670;28;20021;-81
2022/09/22 06:44:54;;;;;;;23.30;21.35;;;;;;;-141.48;100.00;69781.59;5234078;28;20055;-80
2022/09/22 06:47:24;;;;;;;20.63;18.85;;;;;;;-141.48;100.00;69781.59;5235012;28;20058;-82
2022/09/22 06:49:54;;;;;;;21.60;19.95;;;;;;;-141.48;100.00;69781.59;5234510;28;20085;-81
2022/09/22 06:52:26;;;;;;;22.00;20.10;;;;;;;-141.48;100.00;69781.59;5235456;28;20028;-81
2022/09/22 06:54:59;;;;;;;17.55;16.02;;;;;;;-141.48;100.00;69781.59;5234006;28;20447;-80
2022/09/22 06:57:31;;;;;;;19.67;17.95;;;;;;;-141.48;100.00;69781.59;5234336;28;20032;-81
2022/09/22 07:00:03;;;;;;;24.60;19.42;;;;;;;-141.48;100.00;69781.59;5235867;28;20100;-82
2022/09/22 07:02:34;;;;;;;17.67;16.05;;;;;;;-141.48;100.00;69781.59;5235714;28;20021;-82
2022/09/22 07:05:05;;;;;;;16.08;14.88;;;;;;;-141.48;100.00;69781.59;5234999;28;20209;-81
2022/09/22 07:07:36;;;;;;;18.17;16.83;;;;;;;-141.48;100.00;69781.59;5234622;28;20052;-81
2022/09/22 07:10:06;;;;;;;16.38;14.90;;;;;;;-141.48;100.00;69781.59;5234453;28;20052;-81
2022/09/22 07:12:37;;;;;;;27.13;15.98;;;;;;;-141.48;100.00;69781.59;5235207;28;20103;-81
2022/09/22 07:15:07;;;;;;;17.67;16.48;;;;;;;-141.48;100.00;69781.59;5234153;28;20017;-81
2022/09/22 07:17:38;;;;;;;17.02;15.88;;;;;;;-141.48;100.00;69781.59;5235675;28;20094;-79
2022/09/22 07:20:08;;;;;;;17.15;15.88;;;;;;;-141.48;100.00;69781.59;5235205;28;20048;-80
2022/09/22 07:22:39;;;;;;;17.17;15.60;;;;;;;-141.48;100.00;69781.59;5235430;28;20475;-80
2022/09/22 07:25:09;;;;;;;22.70;14.30;;;;;;;-141.48;100.00;69781.59;5233971;28;20102;-80
2022/09/22 07:27:40;;;;;;;19.73;17.80;;;;;;;-141.48;100.00;69781.59;5235927;28;20024;-81
2022/09/22 07:30:12;;;;;;;14.00;12.68;;;;;;;-141.48;100.00;69781.59;5234443;28;20278;-80
2022/09/22 07:32:43;;;;;;;17.35;16.05;;;;;;;-141.48;100.00;69781.59;5234613;28;20040;-81
2022/09/22 07:35:13;;;;;;;12.70;11.70;;;;;;;-141.48;100.00;69781.59;5234562;28;20017;-80
2022/09/22 07:37:45;;;;;;;14.43;13.40;;;;;;;-141.48;100.00;69781.59;5235754;28;20024;-80
2022/09/22 07:40:15;;;;;;;16.35;14.80;;;;;;;-141.48;100.00;69781.59;5234197;28;20024;-81
2022/09/22 07:42:49;;;;;;;12.45;11.45;;;;;;;-141.48;100.00;69781.59;5233998;28;20024;-82
2022/09/22 07:45:20;;;;;;;14.18;12.65;;;;;;;-141.48;100.00;69781.59;5232621;28;20300;-81
2022/09/22 07:48:51;;;;;;;13.35;12.30;;;;;;;-141.48;100.00;69781.59;5236212;28;20479;-80
2022/09/22 07:50:53;;;;;;;11.97;10.80;;;;;;;-141.48;100.00;69781.59;5222577;28;20403;-81
2022/09/22 07:53:24;;;;;;;12.65;11.63;;;;;;;-141.48;100.00;69781.59;5235362;28;20049;-81
2022/09/22 07:55:54;;;;;;;10.43;9.73;;;;;;;-141.48;100.00;69781.59;5235808;28;20056;-80
2022/09/22 07:58:25;;;;;;;12.65;9.48;;;;;;;-141.48;100.00;69781.59;5235574;28;20033;-80
2022/09/22 08:00:55;;;;;;;11.55;10.43;;;;;;;-141.48;100.00;69781.59;5234990;28;20426;-82
2022/09/22 08:03:26;;;;;;;12.23;11.02;;;;;;;-141.48;100.00;69781.59;5233637;28;20067;-82
2022/09/22 08:06:06;;;;;;;9.77;8.93;;;;;;;-141.48;100.00;69781.59;5233473;28;20053;-80
2022/09/22 08:08:39;;;;;;;12.50;11.45;;;;;;;-141.48;100.00;69781.59;5233550;28;20024;-80
2022/09/22 08:11:16;;;;;;;9.38;8.57;;;;;;;-141.48;100.00;69781.59;5234863;28;20021;-79
2022/09/22 08:13:58;;;;;;;9.15;8.30;;;;;;;-141.48;100.00;69781.59;5233501;28;20029;-80
2022/09/22 08:16:31;;;;;;;9.80;9.00;;;;;;;-141.48;100.00;69781.59;5232093;28;20021;-80
2022/09/22 08:19:09;;;;;;;10.07;9.18;;;;;;;-141.48;100.00;69781.59;5232859;28;20032;-81
2022/09/22 08:21:45;;;;;;;8.68;8.18;;;;;;;-141.48;100.00;69781.59;5232357;28;20025;-81
2022/09/22 08:24:21;;;;;;;9.75;8.90;;;;;;;-141.48;100.00;69781.59;5232037;28;20120;-81
2022/09/22 08:26:54;;;;;;;11.05;8.20;;;;;;;-141.48;100.00;69781.59;5233577;28;20031;-81
2022/09/22 08:29:25;;;;;;;7.80;7.25;;;;;;;-141.48;100.00;69781.59;5234453;28;20040;-81
2022/09/22 08:31:55;;;;;;;8.65;8.10;;;;;;;-141.48;100.00;69781.59;5234498;28;20021;-81
2022/09/22 08:34:26;;;;;;;7.95;7.20;;;;;;;-141.48;100.00;69781.59;5231568;28;20044;-82
2022/09/22 08:36:56;;;;;;;10.95;7.30;;;;;;;-141.48;100.00;69781.59;5233461;28;20085;-81
2022/09/22 08:39:27;;;;;;;8.48;7.72;;;;;;;-141.48;100.00;69781.59;5234189;28;20033;-82
2022/09/22 08:42:17;;;;;;;7.07;6.50;;;;;;;-141.48;100.00;69781.59;5234346;28;20035;-82
2022/09/22 08:44:57;;;;;;;;;;;;;;;-141.48;100.00;69781.59;5233532;28;20414;-82
2022/09/22 08:53:44;;;;;;;6.15;5.65;;;;;;;-141.48;100.00;69781.59;5233844;28;20105;-82
2022/09/22 08:56:30;;;;;;;5.80;5.50;;;;;;;-141.48;100.00;69781.59;5235360;28;20044;-83
2022/09/22 08:59:07;;;;;;;6.78;6.18;;;;;;;-141.48;100.00;69781.59;5245905;22;20480;-68
2022/09/22 09:01:38;;;;;;;6.13;5.72;;;;;;;-141.48;100.00;69781.59;5188900;28;20034;-66
2022/09/22 09:04:33;;;;;;;5.38;4.97;;;;;;;-141.48;100.00;69781.59;5206190;28;20026;-66
2022/09/22 09:07:13;;;;;;;6.82;6.25;;;;;;;-141.48;100.00;69781.59;5187506;28;20031;-66
2022/09/22 09:09:49;;;;;;;7.13;6.03;;;;;;;-141.48;100.00;69781.59;5188254;28;20073;-66
2022/09/22 09:12:37;;;;;;;5.70;5.32;;;;;;;-141.48;100.00;69781.59;5188903;28;20470;-67
2022/09/22 09:15:25;;;;;;;5.90;5.50;;;;;;;-141.48;100.00;69781.59;5188179;28;20029;-67
2022/09/22 09:18:00;;;;;;;4.30;3.95;;;;;;;-141.48;100.00;69781.59;5188602;28;20017;-66
2022/09/22 09:20:47;;;;;;;4.10;3.88;;;;;;;-141.48;100.00;69781.59;5188155;28;20025;-65
2022/09/22 09:23:30;;;;;;;5.43;5.03;;;;;;;-141.48;100.00;69781.59;5188077;28;20049;-66
2022/09/22 09:26:03;;;;;;;4.85;4.57;;;;;;;-141.48;100.00;69781.59;5188187;28;20033;-67
2022/09/22 09:28:41;;;;;;;6.97;4.43;;;;;;;-141.48;100.00;69781.59;5188443;28;20182;-66
2022/09/22 09:31:35;;;;;;;6.50;5.75;;;;;;;-141.48;100.00;69781.59;5187914;28;20040;-67
2022/09/22 09:34:14;;;;;;;5.00;4.60;;;;;;;-141.48;100.00;69781.59;5188068;28;20384;-66
2022/09/22 09:36:54;;;;;;;4.07;3.78;;;;;;;-141.48;100.00;69781.59;5188236;28;20029;-67
2022/09/22 09:39:31;;;;;;;4.65;4.35;;;;;;;-141.48;100.00;69781.59;5187316;28;20029;-67
2022/09/22 09:42:26;;;;;;;4.55;4.30;;;;;;;-141.48;100.00;69781.59;5187658;28;20469;-67
2022/09/22 09:45:01;;;;;;;4.40;4.07;;;;;;;-141.48;100.00;69781.59;5187091;28;20071;-66
2022/09/22 09:48:04;;;;;;;4.95;4.65;;;;;;;-141.48;100.00;69781.59;5187795;28;20041;-66
2022/09/22 09:50:34;;;;;;;5.50;4.32;;;;;;;-141.48;100.00;69781.59;5189889;28;20041;-66
2022/09/22 09:53:09;;;;;;;3.38;3.03;;;;;;;-141.48;100.00;69781.59;5187831;28;20036;-66
2022/09/22 09:55:41;;;;;;;4.38;4.10;;;;;;;-141.48;100.00;69781.59;5187442;28;20138;-66
2022/09/22 10:00:29;;;;;;;5.00;4.68;;;;;;;-141.48;100.00;69781.59;5186773;28;20144;-65
2022/09/22 10:01:07;;;;;;;10.20;5.03;;;;;;;-141.48;100.00;69781.59;5205320;28;20036;-64
2022/09/22 10:03:46;;;;;;;10.00;4.63;;;;;;;-141.48;100.00;69781.59;5186716;28;20516;-66
2022/09/22 10:06:24;;;;;;;5.20;4.90;;;;;;;-141.48;100.00;69781.59;5187244;28;20029;-66
2022/09/22 10:08:55;;;;;;;7.80;5.07;;;;;;;-141.48;100.00;69781.59;5186144;28;20394;-66
2022/09/22 10:11:31;;;;;;;3.58;3.38;;;;;;;-141.48;100.00;69781.59;5186647;28;20029;-66
2022/09/22 10:14:02;;;;;;;5.03;4.63;;;;;;;-141.48;100.00;69781.59;5187122;28;20025;-66
2022/09/22 10:16:34;;;;;;;6.82;5.18;;;;;;;-141.48;100.00;69781.59;5186968;28;20021;-66
2022/09/22 10:19:28;;;;;;;4.30;4.00;;;;;;;-141.48;100.00;69781.59;5187112;28;20037;-66
2022/09/22 10:22:24;;;;;;;4.38;4.07;;;;;;;-141.48;100.00;69781.59;5186644;28;20084;-66
2022/09/22 10:25:00;;;;;;;4.00;3.70;;;;;;;-141.48;100.00;69781.59;5173094;28;20033;-66
2022/09/22 10:27:31;;;;;;;4.72;4.32;;;;;;;-141.48;100.00;69781.59;5186927;28;20037;-66
2022/09/22 10:30:32;;;;;;;3.33;2.75;;;;;;;-141.48;100.00;69781.59;5186773;28;20458;-66
2022/09/22 10:33:13;;;;;;;5.00;3.42;;;;;;;-141.48;100.00;69781.59;5163043;28;20458;-65
2022/09/22 10:35:54;;;;;;;6.68;3.20;;;;;;;-141.48;100.00;69781.59;5204727;28;20627;-66
2022/09/22 10:38:27;;;;;;;3.88;3.67;;;;;;;-141.48;100.00;69781.59;5187152;28;20060;-67
2022/09/22 10:41:06;;;;;;;3.22;3.03;;;;;;;-141.48;100.00;69781.59;5204471;28;20104;-67
2022/09/22 10:43:54;;;;;;;5.07;3.67;;;;;;;-141.48;100.00;69781.59;5186715;28;20033;-67
2022/09/22 10:46:27;;;;;;;2.83;2.72;;;;;;;-141.48;100.00;69781.59;5205284;28;20029;-68
2022/09/22 10:49:09;;;;;;;5.55;2.88;;;;;;;-141.48;100.00;69781.59;5186984;28;20029;-67
2022/09/22 10:51:58;;;;;;;4.15;3.00;;;;;;;-141.48;100.00;69781.59;5186534;28;20059;-65
2022/09/22 10:55:00;;;;;;;3.00;2.90;;;;;;;-141.48;100.00;69781.59;5186861;28;20032;-67
2022/09/22 10:57:34;;;;;;;2.55;2.45;;;;;;;-141.48;100.00;69781.59;5186618;28;20062;-67
2022/09/22 11:00:21;;;;;;;2.35;2.25;;;;;;;-141.48;100.00;69781.59;5204079;28;20044;-66
2022/09/22 11:03:06;;;;;;;6.68;3.38;;;;;;;-141.48;100.00;69781.59;5204121;28;20021;-67
2022/09/22 11:12:24;;;;;;;2.63;2.53;;;;;;;-141.48;100.00;69781.59;5203858;28;20083;-65
2022/09/22 11:15:06;;;;;;;2.10;1.90;;;;;;;-141.48;100.00;69781.59;5185553;28;20026;-66
2022/09/22 11:17:55;;;;;;;2.45;2.35;;;;;;;-141.48;100.00;69781.59;5203849;28;20425;-66
2022/09/22 11:20:38;;;;;;;3.58;2.15;;;;;;;-141.48;100.00;69781.59;5202643;28;20393;-66
2022/09/22 11:23:28;;;;;;;2.22;2.13;;;;;;;-141.48;100.00;69781.59;5185641;28;20029;-66
2022/09/22 11:26:18;;;;;;;3.33;2.28;;;;;;;-141.48;100.00;69781.59;5185757;28;20029;-66
2022/09/22 11:29:09;;;;;;;8.23;3.60;;;;;;;-141.48;100.00;69781.59;5185661;28;20145;-66
2022/09/22 11:32:04;;;;;;;2.20;2.00;;;;;;;-141.48;100.00;69781.59;5185692;28;20115;-65
2022/09/22 11:34:44;;;;;;;1.95;1.85;;;;;;;-141.48;100.00;69781.59;5185265;28;20052;-66
2022/09/22 11:37:26;;;;;;;2.25;2.15;;;;;;;-141.48;100.00;69781.59;5185420;28;20556;-66
2022/09/22 11:40:19;;;;;;;1.90;1.80;;;;;;;-141.48;100.00;69781.59;5185129;28;20037;-66
2022/09/22 11:43:16;;;;;;;2.10;2.00;;;;;;;-141.48;100.00;69781.59;5185441;28;20021;-67
2022/09/22 11:46:01;;;;;;;2.42;2.22;;;;;;;-141.48;100.00;69781.59;5169860;28;20033;-67
2022/09/22 11:48:47;;;;;;;2.00;1.90;;;;;;;-141.48;100.00;69781.59;5185444;28;20034;-66
2022/09/22 11:51:29;;;;;;;2.75;2.65;;;;;;;-141.48;100.00;69781.59;5185112;28;20370;-65
2022/09/22 11:53:59;;;;;;;2.15;2.08;;;;;;;-141.48;100.00;69781.59;5202681;28;20108;-67